Light Rain Showers Current Weather (METAR) For Amsterdam Schiphol Airport

All times on the weather descriptions are local

Observed at 03:55 - (24 mins ago)

Light Rain Showers

7°C

Light Rain Showers
Clouds: Few Clouds at 2,300ft, Scattered Clouds at 3,500ft
Wind: 340° at 08 knots
Visibility: Greater than 10km
QNH: 1016
Dew Point: 5°C
Runways with a headwind: Runway 06, Runway 27, Runways 36L/C/R

Sunrise Today: 06:31
Sunset Today: 20:48

Forecast Weather (TAF) For Amsterdam Schiphol Airport

Issued at 02:00 - (10 days 21 hrs ago)


Runways with a headwind: Unable to determine, wind is clam

Forecast valid until 02:00 on Wednesday

METAR/TAF RAW METAR / TAF

EHAM 190155Z 34008KT 9999 -SHRA FEW023CB SCT035 07/05 Q1016 NOSIG

Weather Widget

Put weather from any of our airports on your website with our weather widget.

Find Another Search

Airport Search


Please Wait Please Wait - Loading
Close
Close

Login

Username:

Password:

Remember Me:

Remember me on this computer

Forgotten your password? Get a reset password sent to your registered e-mail address

Close

User Private Message

Subject:

Message: